createdAt,value
2023-04-28T00:02:24.612Z,2.50
2023-04-28T00:04:53.104Z,2.40
2023-04-28T00:07:21.600Z,2.40
2023-04-28T00:09:49.625Z,2.70
2023-04-28T00:12:17.664Z,3.00
2023-04-28T00:14:45.734Z,2.30
2023-04-28T00:17:14.081Z,2.70
2023-04-28T00:19:42.348Z,2.80
2023-04-28T00:22:10.577Z,2.70
2023-04-28T00:24:38.686Z,2.20
2023-04-28T00:27:07.605Z,3.00
2023-04-28T00:29:36.882Z,2.80
2023-04-28T00:32:05.148Z,2.60
2023-04-28T00:34:34.432Z,2.60
2023-04-28T00:37:02.622Z,2.50
2023-04-28T00:39:30.815Z,3.30
2023-04-28T00:41:58.922Z,2.50
2023-04-28T00:44:27.205Z,2.90
2023-04-28T00:46:55.808Z,2.60
2023-04-28T00:49:23.867Z,2.70
2023-04-28T00:51:52.221Z,2.50
2023-04-28T00:54:20.481Z,2.60
2023-04-28T00:56:49.413Z,3.00
2023-04-28T00:59:17.632Z,3.30
2023-04-28T01:01:46.311Z,3.10
2023-04-28T01:04:16.573Z,2.60
2023-04-28T01:06:44.952Z,2.60
2023-04-28T01:09:13.304Z,2.60
2023-04-28T01:11:42.180Z,2.60
2023-04-28T01:14:18.081Z,2.50
2023-04-28T01:16:47.539Z,3.40
2023-04-28T01:19:22.791Z,2.70
2023-04-28T01:21:51.249Z,2.70
2023-04-28T01:24:23.499Z,2.70
2023-04-28T01:26:51.921Z,3.20
2023-04-28T01:29:19.978Z,2.90
2023-04-28T01:31:48.131Z,3.10
2023-04-28T01:34:16.500Z,2.50
2023-04-28T01:36:44.777Z,2.90
2023-04-28T01:39:12.922Z,2.60
2023-04-28T01:41:42.591Z,3.50
2023-04-28T01:44:11.971Z,2.80
2023-04-28T01:46:40.096Z,3.10
2023-04-28T01:49:08.274Z,2.90
2023-04-28T01:51:36.312Z,2.80
2023-04-28T01:54:04.452Z,2.90
2023-04-28T01:56:32.698Z,3.30
2023-04-28T01:59:01.836Z,2.70
2023-04-28T02:01:30.292Z,2.70
2023-04-28T02:03:58.657Z,2.80
2023-04-28T02:06:28.116Z,2.60
2023-04-28T02:08:58.569Z,3.20
2023-04-28T02:11:26.684Z,2.90
2023-04-28T02:13:57.941Z,3.00
2023-04-28T02:16:26.329Z,2.60
2023-04-28T02:18:54.419Z,2.50
2023-04-28T02:21:22.459Z,2.30
2023-04-28T02:23:51.192Z,2.40
2023-04-28T02:26:19.390Z,2.40
2023-04-28T02:28:49.155Z,2.70
2023-04-28T02:31:18.453Z,2.70
2023-04-28T02:33:48.122Z,2.40
2023-04-28T02:36:16.271Z,2.30
2023-04-28T02:38:45.159Z,2.30
2023-04-28T02:41:15.115Z,2.50
2023-04-28T02:43:43.860Z,2.50
2023-04-28T02:46:12.019Z,2.70
2023-04-28T02:48:40.968Z,2.70
2023-04-28T02:51:09.532Z,2.60
2023-04-28T02:53:37.725Z,2.80
2023-04-28T02:56:06.533Z,2.90
2023-04-28T02:58:35.248Z,2.90
2023-04-28T03:01:03.624Z,2.60
2023-04-28T03:03:31.908Z,2.90
2023-04-28T03:06:00.178Z,2.80
2023-04-28T03:08:28.419Z,2.40
2023-04-28T03:10:56.760Z,2.30
2023-04-28T03:13:25.558Z,2.80
2023-04-28T03:15:53.831Z,2.40
2023-04-28T03:18:23.450Z,2.50
2023-04-28T03:20:51.552Z,2.30
2023-04-28T03:23:21.149Z,2.60
2023-04-28T03:25:49.373Z,2.60
2023-04-28T03:28:17.479Z,2.50
2023-04-28T03:30:46.283Z,2.80
2023-04-28T03:33:14.357Z,2.60
2023-04-28T03:35:42.456Z,2.60
2023-04-28T03:38:10.686Z,2.60
2023-04-28T03:40:38.832Z,2.40
2023-04-28T03:43:13.105Z,3.00
2023-04-28T03:45:51.553Z,2.10
2023-04-28T03:48:19.852Z,2.70
2023-04-28T03:50:48.116Z,2.70
2023-04-28T03:53:17.433Z,2.30
2023-04-28T03:55:45.688Z,2.50
2023-04-28T03:58:14.015Z,2.40
2023-04-28T04:00:42.109Z,2.70
2023-04-28T04:03:10.551Z,2.70
2023-04-28T04:05:41.487Z,2.60
2023-04-28T04:08:09.622Z,2.30
2023-04-28T04:10:37.651Z,2.30
2023-04-28T04:13:05.739Z,2.60
2023-04-28T04:15:34.220Z,2.20
2023-04-28T04:18:02.886Z,2.80
2023-04-28T04:20:39.352Z,2.60
2023-04-28T04:23:08.056Z,2.30
2023-04-28T04:25:36.321Z,2.70
2023-04-28T04:28:05.219Z,2.30
2023-04-28T04:30:33.487Z,2.40
2023-04-28T04:33:01.991Z,2.60
2023-04-28T04:35:30.078Z,2.60
2023-04-28T04:37:58.366Z,2.80
2023-04-28T04:40:26.875Z,2.90
2023-04-28T04:42:56.772Z,2.70
2023-04-28T04:45:28.523Z,2.60
2023-04-28T04:47:58.199Z,3.00
2023-04-28T04:50:26.386Z,4.00
2023-04-28T04:52:57.474Z,3.80
2023-04-28T04:55:26.149Z,3.30
2023-04-28T04:57:54.389Z,3.30
2023-04-28T05:00:41.504Z,3.40
2023-04-28T05:03:10.675Z,3.10
2023-04-28T05:05:40.905Z,3.40
2023-04-28T05:08:21.758Z,3.00
2023-04-28T05:10:49.860Z,3.00
2023-04-28T05:13:18.376Z,3.00
2023-04-28T05:15:46.676Z,3.60
2023-04-28T05:18:36.107Z,3.20
2023-04-28T05:21:04.549Z,3.10
2023-04-28T05:23:34.406Z,3.10
2023-04-28T05:26:04.159Z,3.10
2023-04-28T05:28:33.307Z,2.80
2023-04-28T05:31:02.790Z,3.40
2023-04-28T05:33:31.690Z,2.90
2023-04-28T05:36:00.173Z,3.20
2023-04-28T05:38:28.496Z,3.40
2023-04-28T05:40:56.939Z,3.10
2023-04-28T05:43:25.213Z,3.20
2023-04-28T05:45:55.071Z,2.90
2023-04-28T05:48:23.573Z,3.00
2023-04-28T05:50:51.837Z,3.50
2023-04-28T05:53:20.161Z,2.60
2023-04-28T05:55:49.042Z,3.90
2023-04-28T05:58:18.000Z,3.00
2023-04-28T06:00:47.630Z,2.80
2023-04-28T06:03:19.141Z,3.00
2023-04-28T06:05:48.367Z,2.30
2023-04-28T06:08:16.939Z,2.80
2023-04-28T06:10:45.269Z,3.10
2023-04-28T06:13:14.606Z,2.80
2023-04-28T06:15:43.445Z,3.10
2023-04-28T06:18:11.993Z,3.10
2023-04-28T06:20:40.063Z,2.40
2023-04-28T06:23:09.547Z,2.50
2023-04-28T06:25:44.591Z,2.70
2023-04-28T06:28:14.191Z,2.50
2023-04-28T06:30:42.288Z,2.60
2023-04-28T06:33:10.839Z,2.70
2023-04-28T06:35:40.649Z,2.70
2023-04-28T06:38:08.753Z,2.70
2023-04-28T06:40:41.108Z,2.80
2023-04-28T06:43:09.951Z,2.30
2023-04-28T06:46:01.694Z,2.20
2023-04-28T06:48:30.215Z,2.10
2023-04-28T06:50:58.277Z,2.00
2023-04-28T06:53:26.320Z,2.20
2023-04-28T06:55:54.692Z,2.00
2023-04-28T06:58:23.118Z,1.90
2023-04-28T07:00:51.577Z,2.20
2023-04-28T07:03:20.030Z,2.20
2023-04-28T07:05:48.743Z,1.30
2023-04-28T07:08:17.782Z,1.70
2023-04-28T07:10:45.799Z,1.90
2023-04-28T07:13:14.151Z,1.60
2023-04-28T07:15:42.454Z,1.60
2023-04-28T07:18:10.634Z,1.60
2023-04-28T07:20:38.711Z,2.00
2023-04-28T07:23:07.177Z,1.70
2023-04-28T07:25:36.484Z,1.70
2023-04-28T07:28:05.868Z,1.30
2023-04-28T07:30:34.928Z,1.40
2023-04-28T07:33:03.416Z,1.50
2023-04-28T07:35:31.677Z,1.80
2023-04-28T07:37:59.984Z,1.50
2023-04-28T07:40:28.252Z,1.50
2023-04-28T07:42:56.297Z,1.60
2023-04-28T07:45:24.407Z,1.60
2023-04-28T07:47:52.530Z,2.30
2023-04-28T07:50:21.133Z,1.70
2023-04-28T07:52:49.387Z,1.80
2023-04-28T07:55:17.515Z,1.80
2023-04-28T07:57:45.955Z,1.90
2023-04-28T08:00:14.988Z,2.20
2023-04-28T08:02:43.196Z,2.10
2023-04-28T08:05:12.115Z,1.60
2023-04-28T08:07:40.648Z,1.90
2023-04-28T08:10:10.742Z,1.40
2023-04-28T08:12:40.921Z,1.90
2023-04-28T08:15:10.414Z,1.70
2023-04-28T08:17:39.126Z,1.90
2023-04-28T08:20:08.031Z,1.80
2023-04-28T08:22:36.422Z,1.50
2023-04-28T08:25:04.912Z,1.80
2023-04-28T08:27:34.231Z,1.60
2023-04-28T08:30:02.806Z,1.90
2023-04-28T08:32:31.137Z,2.00
2023-04-28T08:34:59.277Z,2.00
2023-04-28T08:37:28.123Z,1.80
2023-04-28T08:40:02.281Z,2.20
2023-04-28T08:42:32.130Z,2.50
2023-04-28T08:45:00.272Z,1.70
2023-04-28T08:47:41.542Z,1.70
2023-04-28T08:50:10.256Z,1.80
2023-04-28T08:52:39.615Z,1.90
2023-04-28T08:55:10.563Z,1.70
2023-04-28T08:57:59.183Z,2.10
2023-04-28T09:00:27.391Z,1.60
2023-04-28T09:02:55.850Z,1.20
2023-04-28T09:05:24.325Z,1.70
2023-04-28T09:07:53.814Z,1.60
2023-04-28T09:10:26.677Z,1.80
2023-04-28T09:12:56.266Z,1.80
2023-04-28T09:15:33.861Z,1.80
2023-04-28T09:18:08.185Z,2.20
2023-04-28T09:20:37.262Z,1.70
2023-04-28T09:23:20.488Z,1.20
2023-04-28T09:25:59.312Z,1.50
2023-04-28T09:28:29.205Z,1.60
2023-04-28T09:30:57.440Z,2.20
2023-04-28T09:33:26.009Z,1.90
2023-04-28T09:35:54.980Z,2.10
2023-04-28T09:38:23.701Z,1.50
2023-04-28T09:40:59.872Z,1.60
2023-04-28T09:43:33.335Z,1.60
2023-04-28T09:46:06.489Z,1.80
2023-04-28T09:48:38.123Z,2.10
2023-04-28T09:51:08.165Z,1.50
2023-04-28T09:53:36.925Z,1.70
2023-04-28T09:56:05.506Z,2.00
2023-04-28T09:58:40.404Z,1.80
2023-04-28T10:01:11.752Z,1.70
2023-04-28T10:03:43.727Z,1.60
2023-04-28T10:06:11.920Z,1.40
2023-04-28T10:08:41.522Z,2.20
2023-04-28T10:11:10.758Z,3.90
2023-04-28T10:13:39.231Z,1.90
2023-04-28T10:16:08.284Z,1.60
2023-04-28T10:18:39.180Z,1.80
2023-04-28T10:21:08.485Z,2.30
2023-04-28T10:24:05.192Z,1.90
2023-04-28T10:27:09.392Z,1.70
2023-04-28T10:29:38.296Z,1.70
2023-04-28T10:32:19.876Z,2.10
2023-04-28T10:34:48.529Z,2.00
2023-04-28T10:37:18.513Z,1.40
2023-04-28T10:40:36.069Z,1.80
2023-04-28T10:43:05.132Z,2.00
2023-04-28T10:45:57.573Z,1.50
2023-04-28T10:48:29.555Z,2.20
2023-04-28T10:51:04.242Z,1.80
2023-04-28T10:53:52.062Z,1.60
2023-04-28T10:56:25.451Z,2.20
2023-04-28T10:59:00.524Z,1.40
2023-04-28T11:01:32.193Z,1.90
2023-04-28T11:04:18.278Z,1.90
2023-04-28T11:06:48.113Z,1.70
2023-04-28T11:09:16.211Z,1.50
2023-04-28T11:11:59.703Z,1.90
2023-04-28T11:14:33.807Z,1.70
2023-04-28T11:17:07.134Z,2.30
2023-04-28T11:19:35.185Z,1.70
2023-04-28T11:22:23.725Z,1.80
2023-04-28T11:24:59.932Z,1.90
2023-04-28T11:27:30.413Z,1.80
2023-04-28T11:29:59.870Z,1.60
2023-04-28T11:32:29.097Z,1.60
2023-04-28T11:34:57.433Z,1.60
2023-04-28T11:37:25.866Z,2.00
2023-04-28T11:39:54.300Z,1.80
2023-04-28T11:42:22.728Z,2.20
2023-04-28T11:44:55.026Z,2.00
2023-04-28T11:47:34.472Z,1.90
2023-04-28T11:50:03.430Z,2.10
2023-04-28T11:52:31.691Z,2.50
2023-04-28T11:55:02.557Z,2.50
2023-04-28T11:57:30.787Z,1.80
2023-04-28T12:00:20.036Z,2.50
2023-04-28T12:02:48.926Z,2.30
2023-04-28T12:05:17.398Z,2.80
2023-04-28T12:07:46.056Z,2.70
2023-04-28T12:10:19.057Z,3.10
2023-04-28T12:12:52.682Z,3.00
2023-04-28T12:15:22.943Z,3.10
2023-04-28T12:17:51.904Z,3.30
2023-04-28T12:20:35.361Z,2.90
2023-04-28T12:23:03.894Z,3.20
2023-04-28T12:25:34.117Z,3.80
2023-04-28T12:28:04.765Z,3.20
2023-04-28T12:30:35.332Z,3.00
2023-04-28T12:33:04.358Z,3.40
2023-04-28T12:35:33.341Z,4.00
2023-04-28T12:38:01.504Z,3.10
2023-04-28T12:40:29.749Z,3.40
2023-04-28T12:42:57.964Z,2.90
2023-04-28T12:45:26.284Z,2.80
2023-04-28T12:47:55.613Z,3.50
2023-04-28T12:50:25.801Z,3.20
2023-04-28T12:52:53.869Z,3.30
2023-04-28T12:55:21.937Z,3.50
2023-04-28T12:57:50.243Z,3.20
2023-04-28T13:00:21.382Z,4.80
2023-04-28T13:02:51.468Z,6.50
2023-04-28T13:05:20.203Z,5.20
2023-04-28T13:07:50.857Z,4.30
2023-04-28T13:10:19.273Z,3.80
2023-04-28T13:12:47.502Z,3.90
2023-04-28T13:15:15.942Z,4.10
2023-04-28T13:17:46.426Z,3.10
2023-04-28T13:20:14.652Z,3.00
2023-04-28T13:22:42.963Z,3.90
2023-04-28T13:25:11.770Z,3.40
2023-04-28T13:27:41.917Z,3.10
2023-04-28T13:30:12.214Z,3.90
2023-04-28T13:32:40.732Z,4.20
2023-04-28T13:35:09.682Z,3.80
2023-04-28T13:37:42.794Z,4.70
2023-04-28T13:40:11.867Z,4.20
2023-04-28T13:42:40.165Z,4.10
2023-04-28T13:45:08.647Z,4.10
2023-04-28T13:47:36.728Z,4.10
2023-04-28T13:50:05.215Z,4.60
2023-04-28T13:52:33.307Z,3.80
2023-04-28T13:55:01.441Z,4.20
2023-04-28T13:57:29.748Z,3.90
2023-04-28T13:59:57.905Z,3.60
2023-04-28T14:02:27.522Z,4.00
2023-04-28T14:04:56.023Z,3.70
2023-04-28T14:07:24.272Z,3.90
2023-04-28T14:09:52.383Z,3.90
2023-04-28T14:12:20.596Z,4.10
2023-04-28T14:14:49.581Z,4.20
2023-04-28T14:17:17.856Z,4.50
2023-04-28T14:19:46.841Z,4.40
2023-04-28T14:22:15.203Z,4.10
2023-04-28T14:24:43.696Z,4.00
2023-04-28T14:27:11.771Z,3.70
2023-04-28T14:29:40.172Z,4.20
2023-04-28T14:32:08.305Z,4.20
2023-04-28T14:34:36.606Z,4.00
2023-04-28T14:37:04.761Z,3.60
2023-04-28T14:39:32.890Z,3.60
2023-04-28T14:42:00.962Z,3.30
2023-04-28T14:44:29.096Z,3.70
2023-04-28T14:46:57.237Z,3.40
2023-04-28T14:49:27.585Z,3.50
2023-04-28T14:51:55.731Z,3.30
2023-04-28T14:54:23.964Z,3.20
2023-04-28T14:56:52.031Z,3.60
2023-04-28T14:59:20.690Z,3.60
2023-04-28T15:01:50.810Z,3.50
2023-04-28T15:04:19.570Z,3.50
2023-04-28T15:06:48.172Z,3.60
2023-04-28T15:09:16.320Z,3.00
2023-04-28T15:11:44.333Z,3.00
2023-04-28T15:14:12.435Z,3.40
2023-04-28T15:16:40.892Z,3.30
2023-04-28T15:19:08.998Z,3.40
2023-04-28T15:21:37.421Z,3.40
2023-04-28T15:24:05.855Z,3.70
2023-04-28T15:26:33.883Z,3.60
2023-04-28T15:29:02.319Z,4.20
2023-04-28T15:31:30.518Z,3.20
2023-04-28T15:33:58.946Z,3.70
2023-04-28T15:36:27.075Z,3.70
2023-04-28T15:38:56.316Z,3.40
2023-04-28T15:41:25.096Z,3.90
2023-04-28T15:43:53.434Z,3.60
2023-04-28T15:46:21.784Z,3.80
2023-04-28T15:48:50.094Z,3.10
2023-04-28T15:51:18.751Z,3.00
2023-04-28T15:53:46.815Z,2.70
2023-04-28T15:56:15.079Z,2.50
2023-04-28T15:58:43.803Z,3.20
2023-04-28T16:01:11.860Z,3.30
2023-04-28T16:03:40.491Z,3.10
2023-04-28T16:06:09.565Z,2.70
2023-04-28T16:08:37.830Z,3.30
2023-04-28T16:11:06.087Z,3.60
2023-04-28T16:13:37.155Z,3.20
2023-04-28T16:16:07.636Z,3.20
2023-04-28T16:18:36.879Z,3.50
2023-04-28T16:21:05.155Z,3.70
2023-04-28T16:23:33.559Z,3.60
2023-04-28T16:26:01.651Z,4.10
2023-04-28T16:28:29.774Z,4.90
2023-04-28T16:30:57.884Z,5.10
2023-04-28T16:33:25.954Z,4.30
2023-04-28T16:35:56.067Z,4.20
2023-04-28T16:38:24.361Z,4.70
2023-04-28T16:40:52.626Z,4.50
2023-04-28T16:43:21.253Z,4.50
2023-04-28T16:45:49.677Z,4.90
2023-04-28T16:48:18.660Z,4.80
2023-04-28T16:50:46.828Z,4.70
2023-04-28T16:53:14.969Z,4.50
2023-04-28T16:55:43.264Z,4.20
2023-04-28T16:58:11.737Z,4.40
2023-04-28T17:00:39.811Z,4.60
2023-04-28T17:03:08.104Z,4.50
2023-04-28T17:05:36.707Z,4.60
2023-04-28T17:08:04.877Z,4.10
2023-04-28T17:10:33.060Z,4.10
2023-04-28T17:13:01.380Z,4.10
2023-04-28T17:15:29.980Z,4.40
2023-04-28T17:17:58.148Z,4.00
2023-04-28T17:20:26.388Z,4.20
2023-04-28T17:22:54.816Z,4.10
2023-04-28T17:25:24.047Z,4.10
2023-04-28T17:27:52.276Z,3.90
2023-04-28T17:30:20.509Z,3.70
2023-04-28T17:32:48.652Z,3.60
2023-04-28T17:35:16.813Z,3.10
2023-04-28T17:37:45.007Z,3.20
2023-04-28T17:40:13.405Z,3.90
2023-04-28T17:42:41.807Z,4.00
2023-04-28T17:45:10.939Z,4.30
2023-04-28T17:47:39.181Z,4.10
2023-04-28T17:50:07.986Z,3.90
2023-04-28T17:52:36.513Z,3.60
2023-04-28T17:55:05.124Z,3.30
2023-04-28T17:57:33.391Z,3.30
2023-04-28T18:00:01.742Z,2.60
2023-04-28T18:02:40.109Z,2.60
2023-04-28T18:05:09.086Z,3.80
2023-04-28T18:07:37.849Z,2.80
2023-04-28T18:10:06.300Z,2.90
2023-04-28T18:12:34.620Z,3.40
2023-04-28T18:15:03.019Z,2.90
2023-04-28T18:17:31.576Z,3.40
2023-04-28T18:20:00.004Z,3.40
2023-04-28T18:22:28.298Z,3.60
2023-04-28T18:24:57.745Z,4.00
2023-04-28T18:27:26.060Z,3.90
2023-04-28T18:29:54.138Z,3.40
2023-04-28T18:32:22.574Z,3.10
2023-04-28T18:34:50.718Z,3.40
2023-04-28T18:37:19.089Z,3.60
2023-04-28T18:39:47.453Z,3.60
2023-04-28T18:42:15.445Z,3.10
2023-04-28T18:44:43.514Z,3.20
2023-04-28T18:47:12.899Z,3.30
2023-04-28T18:49:41.058Z,3.00
2023-04-28T18:52:09.082Z,3.60
2023-04-28T18:54:37.535Z,3.30
2023-04-28T18:57:06.728Z,3.40
2023-04-28T18:59:34.898Z,3.40
2023-04-28T19:02:03.456Z,3.50
2023-04-28T19:04:31.554Z,3.50
2023-04-28T19:06:59.669Z,3.60
2023-04-28T19:09:28.016Z,3.30
2023-04-28T19:11:56.788Z,3.00
2023-04-28T19:14:25.082Z,3.00
2023-04-28T19:16:53.464Z,3.10
2023-04-28T19:19:21.700Z,3.30
2023-04-28T19:21:50.957Z,3.20
2023-04-28T19:24:19.310Z,3.10
2023-04-28T19:26:47.376Z,3.00
2023-04-28T19:29:17.394Z,2.40
2023-04-28T19:31:45.891Z,3.10
2023-04-28T19:34:14.175Z,2.50
2023-04-28T19:36:42.431Z,3.10
2023-04-28T19:39:10.428Z,3.00
2023-04-28T19:41:38.436Z,2.60
2023-04-28T19:44:06.465Z,2.80
2023-04-28T19:46:34.631Z,2.80
2023-04-28T19:49:03.653Z,2.70
2023-04-28T19:51:31.741Z,2.40
2023-04-28T19:53:59.953Z,2.40
2023-04-28T19:56:28.436Z,2.40
2023-04-28T19:58:56.454Z,2.60
2023-04-28T20:01:24.691Z,2.40
2023-04-28T20:03:54.299Z,3.00
2023-04-28T20:06:22.526Z,2.50
2023-04-28T20:08:51.133Z,2.40
2023-04-28T20:11:19.741Z,2.60
2023-04-28T20:13:48.473Z,3.00
2023-04-28T20:16:17.339Z,3.70
2023-04-28T20:18:45.970Z,3.00
2023-04-28T20:21:14.087Z,3.30
2023-04-28T20:23:42.373Z,3.30
2023-04-28T20:26:16.627Z,3.10
2023-04-28T20:28:46.777Z,3.90
2023-04-28T20:31:15.471Z,3.50
2023-04-28T20:33:43.605Z,3.30
2023-04-28T20:36:13.050Z,3.30
2023-04-28T20:38:43.484Z,3.30
2023-04-28T20:41:12.266Z,3.30
2023-04-28T20:43:41.104Z,3.40
2023-04-28T20:46:10.409Z,4.30
2023-04-28T20:48:38.620Z,3.30
2023-04-28T20:51:07.612Z,3.60
2023-04-28T20:53:35.749Z,3.70
2023-04-28T20:56:04.240Z,4.60
2023-04-28T20:58:32.398Z,4.30
2023-04-28T21:01:01.487Z,4.10
2023-04-28T21:03:30.835Z,4.30
2023-04-28T21:05:59.125Z,3.30
2023-04-28T21:08:29.421Z,4.20
2023-04-28T21:10:57.450Z,3.80
2023-04-28T21:13:25.516Z,2.90
2023-04-28T21:15:53.947Z,3.70
2023-04-28T21:18:22.008Z,3.90
2023-04-28T21:20:51.249Z,4.20
2023-04-28T21:23:19.810Z,6.50
2023-04-28T21:25:47.958Z,5.30
2023-04-28T21:28:16.458Z,5.00
2023-04-28T21:30:44.498Z,5.00
2023-04-28T21:33:12.669Z,4.30
2023-04-28T21:35:40.748Z,3.70
2023-04-28T21:38:10.992Z,3.40
2023-04-28T21:40:39.370Z,3.00
2023-04-28T21:43:08.301Z,4.30
2023-04-28T21:45:36.462Z,3.70
2023-04-28T21:48:04.974Z,4.50
2023-04-28T21:50:33.095Z,4.30
2023-04-28T21:53:01.149Z,3.50
2023-04-28T21:55:29.309Z,2.90
2023-04-28T21:57:59.997Z,2.90
2023-04-28T22:00:28.557Z,3.10
2023-04-28T22:02:57.892Z,3.20
2023-04-28T22:05:26.221Z,3.70
2023-04-28T22:07:54.272Z,3.10
2023-04-28T22:10:22.914Z,3.60
2023-04-28T22:12:51.023Z,4.30
2023-04-28T22:15:19.254Z,7.20
2023-04-28T22:17:47.799Z,5.30
2023-04-28T22:20:16.067Z,6.30
2023-04-28T22:22:44.123Z,6.70
2023-04-28T22:25:12.442Z,8.90
2023-04-28T22:27:40.696Z,9.80
2023-04-28T22:30:10.047Z,12.60
2023-04-28T22:32:38.390Z,12.70
2023-04-28T22:35:07.124Z,14.60
2023-04-28T22:37:35.570Z,13.50
2023-04-28T22:40:04.734Z,13.20
2023-04-28T22:42:42.837Z,10.80
2023-04-28T22:45:11.915Z,13.30
2023-04-28T22:47:41.180Z,9.40
2023-04-28T22:50:10.908Z,9.10
2023-04-28T22:52:39.311Z,9.20
2023-04-28T22:55:07.919Z,6.70
2023-04-28T22:57:36.582Z,6.80
2023-04-28T23:00:06.030Z,7.80
2023-04-28T23:02:34.240Z,6.90
2023-04-28T23:05:02.496Z,7.30
2023-04-28T23:07:30.676Z,7.20
2023-04-28T23:09:58.757Z,7.70
2023-04-28T23:12:26.944Z,6.50
2023-04-28T23:14:55.777Z,7.30
2023-04-28T23:17:24.633Z,7.20
2023-04-28T23:19:52.873Z,7.40
2023-04-28T23:22:21.413Z,6.30
2023-04-28T23:24:49.447Z,6.90
2023-04-28T23:27:17.859Z,6.90
2023-04-28T23:29:45.942Z,7.30
2023-04-28T23:32:13.960Z,7.80
2023-04-28T23:34:42.848Z,8.40
2023-04-28T23:37:10.947Z,8.90
2023-04-28T23:39:38.987Z,7.80
2023-04-28T23:42:07.528Z,7.10
2023-04-28T23:44:35.793Z,8.10
2023-04-28T23:47:03.840Z,8.10
2023-04-28T23:49:31.896Z,8.30
2023-04-28T23:51:59.928Z,7.10
2023-04-28T23:54:27.968Z,7.40
2023-04-28T23:56:56.994Z,8.10
2023-04-28T23:59:25.787Z,7.80
